Time,TemperatureF,DewpointF,PressureIn,WindDirection,WindDirectionDegrees,WindSpeedMPH,WindSpeedGustMPH,Humidity,HourlyPrecipIn,Conditions,Clouds,dailyrainin,SoftwareType,DateUTC
2013-01-21 00:03:00,2.0,-14.0,30.25,North,353,0.0,13.0,46,0.00,,,0.00,,2013-01-21 06:03:00,
2013-01-21 00:12:00,2.0,-14.0,30.25,North,353,0.0,13.0,46,0.00,,,0.00,,2013-01-21 06:12:00,
2013-01-21 00:23:00,2.0,-14.0,30.25,North,350,8.0,8.0,46,0.00,,,0.00,,2013-01-21 06:23:00,
2013-01-21 00:33:00,1.0,-15.0,30.25,North,357,9.0,10.0,46,0.00,,,0.00,,2013-01-21 06:33:00,
2013-01-21 00:43:00,1.0,-15.0,30.25,North,357,9.0,10.0,46,0.00,,,0.00,,2013-01-21 06:43:00,
2013-01-21 00:52:00,1.0,-15.0,30.25,West,261,13.0,15.0,46,0.00,,,0.00,,2013-01-21 06:52:00,
2013-01-21 01:03:00,0.0,-16.0,30.25,NW,306,12.0,13.0,46,0.00,,,0.00,,2013-01-21 07:03:00,
2013-01-21 01:12:00,0.0,-16.0,30.25,NW,306,12.0,13.0,46,0.00,,,0.00,,2013-01-21 07:12:00,
2013-01-21 01:22:00,0.0,-16.0,30.25,WNW,292,13.0,16.0,46,0.00,,,0.00,,2013-01-21 07:22:00,
2013-01-21 01:33:00,-1.0,-17.0,30.25,NW,311,14.0,14.0,46,0.00,,,0.00,,2013-01-21 07:33:00,
2013-01-21 01:42:00,-1.0,-17.0,30.25,NW,311,14.0,14.0,46,0.00,,,0.00,,2013-01-21 07:42:00,
2013-01-21 01:52:00,-1.0,-17.0,30.25,SW,216,6.0,10.0,46,0.00,,,0.00,,2013-01-21 07:52:00,
2013-01-21 02:03:00,-2.0,-18.0,30.25,NNW,335,5.0,10.0,46,0.00,,,0.00,,2013-01-21 08:03:00,
2013-01-21 02:13:00,-2.0,-18.0,30.25,NNW,335,5.0,10.0,46,0.00,,,0.00,,2013-01-21 08:13:00,
2013-01-21 02:22:00,-2.0,-18.0,30.28,North,357,8.0,17.0,46,0.00,,,0.00,,2013-01-21 08:22:00,
2013-01-21 02:32:00,-3.0,-19.0,30.28,West,271,13.0,14.0,46,0.00,,,0.00,,2013-01-21 08:32:00,
2013-01-21 02:42:00,-3.0,-19.0,30.28,West,271,13.0,14.0,46,0.00,,,0.00,,2013-01-21 08:42:00,
2013-01-21 02:53:00,-3.0,-19.0,30.28,North,357,14.0,15.0,46,0.00,,,0.00,,2013-01-21 08:53:00,
2013-01-21 03:03:00,-4.0,-19.0,30.28,NW,309,13.0,13.0,46,0.00,,,0.00,,2013-01-21 09:03:00,
2013-01-21 03:12:00,-4.0,-19.0,30.28,NW,309,13.0,13.0,46,0.00,,,0.00,,2013-01-21 09:12:00,
2013-01-21 03:23:00,-4.0,-19.0,30.28,NNW,331,9.0,14.0,46,0.00,,,0.00,,2013-01-21 09:23:00,
2013-01-21 03:33:00,-4.0,-19.0,30.28,WNW,289,6.0,10.0,46,0.00,,,0.00,,2013-01-21 09:33:00,
2013-01-21 03:42:00,-4.0,-19.0,30.28,WNW,289,6.0,10.0,46,0.00,,,0.00,,2013-01-21 09:42:00,
2013-01-21 03:52:00,-4.0,-19.0,30.28,NW,307,7.0,13.0,46,0.00,,,0.00,,2013-01-21 09:52:00,
2013-01-21 04:02:00,-4.0,-19.0,30.25,NNW,341,7.0,13.0,46,0.00,,,0.00,,2013-01-21 10:02:00,
2013-01-21 04:12:00,-4.0,-19.0,30.25,NNW,341,7.0,13.0,46,0.00,,,0.00,,2013-01-21 10:12:00,
2013-01-21 04:22:00,-4.0,-19.0,30.25,NW,310,10.0,10.0,46,0.00,,,0.00,,2013-01-21 10:22:00,
2013-01-21 04:32:00,-4.0,-19.0,30.25,West,270,10.0,10.0,46,0.00,,,0.00,,2013-01-21 10:32:00,
2013-01-21 04:43:00,-4.0,-19.0,30.25,West,270,10.0,10.0,46,0.00,,,0.00,,2013-01-21 10:43:00,
2013-01-21 04:52:00,-4.0,-19.0,30.25,WNW,293,9.0,16.0,46,0.00,,,0.00,,2013-01-21 10:52:00,
2013-01-21 05:02:00,-4.0,-19.0,30.25,NNW,328,9.0,13.0,46,0.00,,,0.00,,2013-01-21 11:02:00,
2013-01-21 05:13:00,-4.0,-19.0,30.25,NNW,328,9.0,13.0,46,0.00,,,0.00,,2013-01-21 11:13:00,
2013-01-21 05:23:00,-5.0,-20.0,30.25,NW,316,13.0,13.0,46,0.00,,,0.00,,2013-01-21 11:23:00,
2013-01-21 05:33:00,-6.0,-21.0,30.25,WNW,299,14.0,16.0,46,0.00,,,0.00,,2013-01-21 11:33:00,
2013-01-21 05:42:00,-6.0,-21.0,30.25,WNW,299,14.0,16.0,46,0.00,,,0.00,,2013-01-21 11:42:00,
2013-01-21 05:53:00,-6.0,-21.0,30.25,WNW,299,14.0,16.0,46,0.00,,,0.00,,2013-01-21 11:53:00,
2013-01-21 06:02:00,-8.0,-23.0,30.28,West,264,6.0,10.0,46,0.00,,,0.00,,2013-01-21 12:02:00,
2013-01-21 06:12:00,-8.0,-23.0,30.28,West,264,6.0,10.0,46,0.00,,,0.00,,2013-01-21 12:12:00,
2013-01-21 06:22:00,-8.0,-23.0,30.28,NNW,339,13.0,16.0,46,0.00,,,0.00,,2013-01-21 12:22:00,
2013-01-21 06:32:00,-9.0,-24.0,30.28,West,274,9.0,13.0,46,0.00,,,0.00,,2013-01-21 12:32:00,
2013-01-21 06:42:00,-9.0,-24.0,30.28,West,274,9.0,13.0,46,0.00,,,0.00,,2013-01-21 12:42:00,
2013-01-21 06:52:00,-9.0,-24.0,30.28,WNW,296,8.0,10.0,46,0.00,,,0.00,,2013-01-21 12:52:00,
2013-01-21 07:02:00,-10.0,-25.0,30.28,West,269,8.0,13.0,46,0.00,,,0.00,,2013-01-21 13:02:00,
2013-01-21 07:12:00,-10.0,-25.0,30.28,West,269,8.0,13.0,46,0.00,,,0.00,,2013-01-21 13:12:00,
2013-01-21 07:23:00,-10.0,-25.0,30.28,WNW,298,13.0,16.0,46,0.00,,,0.00,,2013-01-21 13:23:00,
2013-01-21 07:33:00,-10.0,-25.0,30.28,West,280,13.0,13.0,46,0.00,,,0.00,,2013-01-21 13:33:00,
2013-01-21 07:43:00,-10.0,-25.0,30.28,West,280,13.0,13.0,46,0.00,,,0.00,,2013-01-21 13:43:00,
2013-01-21 07:53:00,-10.0,-25.0,30.28,West,280,13.0,13.0,46,0.00,,,0.00,,2013-01-21 13:53:00,
2013-01-21 08:03:00,-10.0,-25.0,30.28,WNW,283,8.0,12.0,46,0.00,,,0.00,,2013-01-21 14:03:00,
2013-01-21 08:12:00,-10.0,-25.0,30.28,WNW,283,8.0,12.0,46,0.00,,,0.00,,2013-01-21 14:12:00,
2013-01-21 08:23:00,-10.0,-25.0,30.28,NNW,338,4.0,9.0,46,0.00,,,0.00,,2013-01-21 14:23:00,
2013-01-21 08:32:00,-10.0,-25.0,30.28,WNW,291,11.0,17.0,46,0.00,,,0.00,,2013-01-21 14:32:00,
2013-01-21 08:43:00,-10.0,-25.0,30.28,WNW,291,11.0,17.0,46,0.00,,,0.00,,2013-01-21 14:43:00,
2013-01-21 08:53:00,-10.0,-25.0,30.28,NW,319,8.0,14.0,46,0.00,,,0.00,,2013-01-21 14:53:00,
2013-01-21 09:03:00,-9.0,-24.0,30.31,WNW,298,17.0,17.0,46,0.00,,,0.00,,2013-01-21 15:03:00,
2013-01-21 09:13:00,-9.0,-24.0,30.31,WNW,298,17.0,17.0,46,0.00,,,0.00,,2013-01-21 15:13:00,
2013-01-21 09:23:00,-8.0,-23.0,30.31,NW,324,6.0,12.0,46,0.00,,,0.00,,2013-01-21 15:23:00,
2013-01-21 09:33:00,-7.0,-22.0,30.31,NW,308,10.0,10.0,46,0.00,,,0.00,,2013-01-21 15:33:00,
2013-01-21 09:43:00,-7.0,-22.0,30.31,NW,308,10.0,10.0,46,0.00,,,0.00,,2013-01-21 15:43:00,
2013-01-21 09:53:00,-7.0,-22.0,30.31,WNW,286,13.0,14.0,46,0.00,,,0.00,,2013-01-21 15:53:00,
2013-01-21 10:03:00,-7.0,-22.0,30.31,WNW,292,6.0,13.0,46,0.00,,,0.00,,2013-01-21 16:03:00,
2013-01-21 10:12:00,-7.0,-22.0,30.31,WNW,292,6.0,13.0,46,0.00,,,0.00,,2013-01-21 16:12:00,
2013-01-21 10:23:00,-6.0,-21.0,30.31,WNW,295,9.0,9.0,46,0.00,,,0.00,,2013-01-21 16:23:00,
2013-01-21 10:33:00,-5.0,-20.0,30.31,NW,314,9.0,16.0,46,0.00,,,0.00,,2013-01-21 16:33:00,
2013-01-21 10:43:00,-5.0,-20.0,30.31,NW,314,9.0,16.0,46,0.00,,,0.00,,2013-01-21 16:43:00,
2013-01-21 10:53:00,-4.0,-19.0,30.34,North,353,12.0,12.0,46,0.00,,,0.00,,2013-01-21 16:53:00,
2013-01-21 11:02:00,-4.0,-19.0,30.34,WNW,283,6.0,8.0,46,0.00,,,0.00,,2013-01-21 17:02:00,
2013-01-21 11:12:00,-4.0,-19.0,30.34,WNW,283,6.0,8.0,46,0.00,,,0.00,,2013-01-21 17:12:00,
2013-01-21 11:22:00,-3.0,-19.0,30.34,NW,309,5.0,16.0,46,0.00,,,0.00,,2013-01-21 17:22:00,
2013-01-21 11:33:00,-3.0,-19.0,30.34,WNW,288,16.0,16.0,46,0.00,,,0.00,,2013-01-21 17:33:00,
2013-01-21 11:43:00,-3.0,-19.0,30.34,WNW,288,16.0,16.0,46,0.00,,,0.00,,2013-01-21 17:43:00,
2013-01-21 11:53:00,-2.0,-18.0,30.31,WNW,296,20.0,20.0,46,0.00,,,0.00,,2013-01-21 17:53:00,
2013-01-21 12:03:00,-2.0,-18.0,30.31,WNW,295,9.0,9.0,46,0.00,,,0.00,,2013-01-21 18:03:00,
2013-01-21 12:12:00,-2.0,-18.0,30.31,WNW,295,9.0,9.0,46,0.00,,,0.00,,2013-01-21 18:12:00,
2013-01-21 12:22:00,-2.0,-18.0,30.31,West,266,14.0,17.0,46,0.00,,,0.00,,2013-01-21 18:22:00,
2013-01-21 12:33:00,-1.0,-17.0,30.28,North,350,17.0,17.0,46,0.00,,,0.00,,2013-01-21 18:33:00,
2013-01-21 12:42:00,-1.0,-17.0,30.28,North,350,17.0,17.0,46,0.00,,,0.00,,2013-01-21 18:42:00,
2013-01-21 12:52:00,0.0,-16.0,30.28,NW,321,8.0,10.0,46,0.00,,,0.00,,2013-01-21 18:52:00,
2013-01-21 13:03:00,0.0,-16.0,30.28,WNW,303,13.0,13.0,46,0.00,,,0.00,,2013-01-21 19:03:00,
2013-01-21 13:12:00,0.0,-16.0,30.28,NW,318,9.0,14.0,46,0.00,,,0.00,,2013-01-21 19:12:00,
2013-01-21 13:22:00,0.0,-16.0,30.28,NW,318,9.0,14.0,46,0.00,,,0.00,,2013-01-21 19:22:00,
2013-01-21 13:33:00,0.0,-16.0,30.28,West,279,8.0,13.0,46,0.00,,,0.00,,2013-01-21 19:33:00,
2013-01-21 13:42:00,0.0,-16.0,30.28,West,279,8.0,13.0,46,0.00,,,0.00,,2013-01-21 19:42:00,
2013-01-21 13:53:00,2.0,-14.0,30.25,WNW,285,17.0,17.0,46,0.00,,,0.00,,2013-01-21 19:53:00,
2013-01-21 14:03:00,2.0,-14.0,30.25,WSW,256,17.0,23.0,46,0.00,,,0.00,,2013-01-21 20:03:00,
2013-01-21 14:12:00,2.0,-14.0,30.25,WSW,256,17.0,23.0,46,0.00,,,0.00,,2013-01-21 20:12:00,
2013-01-21 14:23:00,2.0,-14.0,30.25,WNW,282,24.0,26.0,46,0.00,,,0.00,,2013-01-21 20:23:00,
2013-01-21 14:33:00,2.0,-14.0,30.25,WNW,288,10.0,13.0,46,0.00,,,0.00,,2013-01-21 20:33:00,
2013-01-21 14:43:00,2.0,-14.0,30.25,WNW,288,10.0,13.0,46,0.00,,,0.00,,2013-01-21 20:43:00,
2013-01-21 14:53:00,2.0,-14.0,30.25,WNW,284,5.0,14.0,46,0.00,,,0.00,,2013-01-21 20:53:00,
2013-01-21 15:03:00,2.0,-14.0,30.25,NW,304,9.0,10.0,46,0.00,,,0.00,,2013-01-21 21:03:00,
2013-01-21 15:12:00,2.0,-14.0,30.25,NW,304,9.0,10.0,46,0.00,,,0.00,,2013-01-21 21:12:00,
2013-01-21 15:22:00,2.0,-14.0,30.25,North,353,11.0,11.0,46,0.00,,,0.00,,2013-01-21 21:22:00,
2013-01-21 15:33:00,3.0,-13.0,30.25,West,270,6.0,13.0,46,0.00,,,0.00,,2013-01-21 21:33:00,
2013-01-21 15:43:00,3.0,-13.0,30.25,West,270,6.0,13.0,46,0.00,,,0.00,,2013-01-21 21:43:00,
2013-01-21 15:53:00,2.0,-14.0,30.25,WNW,294,12.0,16.0,46,0.00,,,0.00,,2013-01-21 21:53:00,
2013-01-21 16:03:00,2.0,-14.0,30.25,WNW,294,6.0,13.0,46,0.00,,,0.00,,2013-01-21 22:03:00,
2013-01-21 16:12:00,2.0,-14.0,30.25,WNW,294,6.0,13.0,46,0.00,,,0.00,,2013-01-21 22:12:00,
2013-01-21 16:23:00,2.0,-14.0,30.25,WNW,295,15.0,20.0,46,0.00,,,0.00,,2013-01-21 22:23:00,
2013-01-21 16:33:00,2.0,-14.0,30.25,NW,316,14.0,14.0,46,0.00,,,0.00,,2013-01-21 22:33:00,
2013-01-21 16:42:00,2.0,-14.0,30.25,NW,316,14.0,14.0,46,0.00,,,0.00,,2013-01-21 22:42:00,
2013-01-21 16:52:00,2.0,-14.0,30.25,WNW,289,6.0,12.0,46,0.00,,,0.00,,2013-01-21 22:52:00,
2013-01-21 17:03:00,1.0,-15.0,30.25,NNW,343,16.0,16.0,46,0.00,,,0.00,,2013-01-21 23:03:00,
2013-01-21 17:12:00,1.0,-15.0,30.25,NNW,343,16.0,16.0,46,0.00,,,0.00,,2013-01-21 23:12:00,
2013-01-21 17:22:00,0.0,-16.0,30.25,WNW,294,6.0,14.0,46,0.00,,,0.00,,2013-01-21 23:22:00,
2013-01-21 17:33:00,-1.0,-17.0,30.25,NW,314,15.0,15.0,46,0.00,,,0.00,,2013-01-21 23:33:00,
2013-01-21 17:42:00,-1.0,-17.0,30.25,NW,314,15.0,15.0,46,0.00,,,0.00,,2013-01-21 23:42:00,
2013-01-21 17:53:00,-1.0,-17.0,30.25,NW,322,3.0,10.0,46,0.00,,,0.00,,2013-01-21 23:53:00,
2013-01-21 18:02:00,-1.0,-17.0,30.25,WNW,298,8.0,8.0,46,0.00,,,0.00,,2013-01-22 00:02:00,
2013-01-21 18:12:00,-1.0,-17.0,30.25,WNW,298,8.0,8.0,46,0.00,,,0.00,,2013-01-22 00:12:00,
2013-01-21 18:22:00,-1.0,-17.0,30.25,WNW,296,6.0,6.0,46,0.00,,,0.00,,2013-01-22 00:22:00,
2013-01-21 18:33:00,-1.0,-17.0,30.25,WNW,302,4.0,6.0,46,0.00,,,0.00,,2013-01-22 00:33:00,
2013-01-21 18:42:00,-1.0,-17.0,30.25,WNW,302,4.0,6.0,46,0.00,,,0.00,,2013-01-22 00:42:00,
2013-01-21 18:53:00,-2.0,-18.0,30.25,NW,316,4.0,6.0,46,0.00,,,0.00,,2013-01-22 00:53:00,
2013-01-21 19:02:00,-2.0,-18.0,30.25,NNW,328,6.0,6.0,46,0.00,,,0.00,,2013-01-22 01:02:00,
2013-01-21 19:12:00,-2.0,-18.0,30.25,NNW,328,6.0,6.0,46,0.00,,,0.00,,2013-01-22 01:12:00,
2013-01-21 19:23:00,-2.0,-18.0,30.25,West,277,4.0,4.0,46,0.00,,,0.00,,2013-01-22 01:23:00,
2013-01-21 19:32:00,-3.0,-19.0,30.25,NNW,348,6.0,6.0,46,0.00,,,0.00,,2013-01-22 01:32:00,
2013-01-21 19:42:00,-3.0,-19.0,30.25,NNW,348,6.0,6.0,46,0.00,,,0.00,,2013-01-22 01:42:00,
2013-01-21 19:52:00,-3.0,-19.0,30.25,NNW,348,6.0,6.0,46,0.00,,,0.00,,2013-01-22 01:52:00,
2013-01-21 20:02:00,-3.0,-19.0,30.28,NW,307,0.0,9.0,46,0.00,,,0.00,,2013-01-22 02:02:00,
2013-01-21 20:12:00,-3.0,-19.0,30.28,NW,307,0.0,9.0,46,0.00,,,0.00,,2013-01-22 02:12:00,
2013-01-21 20:22:00,-3.0,-19.0,30.28,NNW,340,14.0,14.0,46,0.00,,,0.00,,2013-01-22 02:22:00,
2013-01-21 20:32:00,-3.0,-19.0,30.28,NW,313,5.0,5.0,46,0.00,,,0.00,,2013-01-22 02:32:00,
2013-01-21 20:42:00,-3.0,-19.0,30.28,NW,313,5.0,5.0,46,0.00,,,0.00,,2013-01-22 02:42:00,
2013-01-21 20:53:00,-3.0,-19.0,30.28,WNW,294,0.0,4.0,46,0.00,,,0.00,,2013-01-22 02:53:00,
2013-01-21 21:02:00,-4.0,-19.0,30.28,NW,310,4.0,6.0,46,0.00,,,0.00,,2013-01-22 03:02:00,
2013-01-21 21:12:00,-4.0,-19.0,30.28,NW,310,4.0,6.0,46,0.00,,,0.00,,2013-01-22 03:12:00,
2013-01-21 21:22:00,-4.0,-19.0,30.28,NW,318,4.0,9.0,46,0.00,,,0.00,,2013-01-22 03:22:00,
2013-01-21 21:32:00,-4.0,-19.0,30.28,NW,326,4.0,10.0,46,0.00,,,0.00,,2013-01-22 03:32:00,
2013-01-21 21:42:00,-4.0,-19.0,30.28,NW,326,4.0,10.0,46,0.00,,,0.00,,2013-01-22 03:42:00,
2013-01-21 21:52:00,-4.0,-19.0,30.28,West,281,0.0,6.0,46,0.00,,,0.00,,2013-01-22 03:52:00,
2013-01-21 22:02:00,-4.0,-19.0,30.28,WNW,282,4.0,6.0,46,0.00,,,0.00,,2013-01-22 04:02:00,
2013-01-21 22:12:00,-4.0,-19.0,30.28,WNW,282,4.0,6.0,46,0.00,,,0.00,,2013-01-22 04:12:00,
2013-01-21 22:22:00,-4.0,-19.0,30.28,WNW,290,0.0,0.0,46,0.00,,,0.00,,2013-01-22 04:22:00,
2013-01-21 22:32:00,-4.0,-19.0,30.28,NW,312,6.0,6.0,46,0.00,,,0.00,,2013-01-22 04:32:00,
2013-01-21 22:42:00,-4.0,-19.0,30.28,NW,312,6.0,6.0,46,0.00,,,0.00,,2013-01-22 04:42:00,
2013-01-21 22:52:00,-4.0,-19.0,30.28,West,273,6.0,6.0,46,0.00,,,0.00,,2013-01-22 04:52:00,
2013-01-21 23:04:00,-4.0,-19.0,30.28,West,273,0.0,0.0,46,0.00,,,0.00,,2013-01-22 05:04:00,
2013-01-21 23:12:00,-4.0,-19.0,30.28,West,273,0.0,0.0,46,0.00,,,0.00,,2013-01-22 05:12:00,
2013-01-21 23:22:00,-4.0,-19.0,30.28,West,267,0.0,0.0,46,0.00,,,0.00,,2013-01-22 05:22:00,
2013-01-21 23:32:00,-4.0,-19.0,30.28,West,266,0.0,0.0,46,0.00,,,0.00,,2013-01-22 05:32:00,
2013-01-21 23:42:00,-4.0,-19.0,30.28,West,266,0.0,0.0,46,0.00,,,0.00,,2013-01-22 05:42:00,
2013-01-21 23:52:00,-4.0,-19.0,30.28,West,272,0.0,0.0,46,0.00,,,0.00,,2013-01-22 05:52:00,